sensor_id;sensor_type;location;lat;lon;timestamp;temperature;humidity
73137;DHT22;62977;45.636;11.750;2022-09-29T00:01:50;15.50;79.00
73137;DHT22;62977;45.636;11.750;2022-09-29T00:04:16;15.50;79.10
73137;DHT22;62977;45.636;11.750;2022-09-29T00:06:42;15.40;80.40
73137;DHT22;62977;45.636;11.750;2022-09-29T00:09:08;15.50;78.90
73137;DHT22;62977;45.636;11.750;2022-09-29T00:11:33;15.60;79.10
73137;DHT22;62977;45.636;11.750;2022-09-29T00:13:59;15.60;78.80
73137;DHT22;62977;45.636;11.750;2022-09-29T00:16:25;15.60;78.80
73137;DHT22;62977;45.636;11.750;2022-09-29T00:18:53;15.70;78.90
73137;DHT22;62977;45.636;11.750;2022-09-29T00:21:19;15.70;78.70
73137;DHT22;62977;45.636;11.750;2022-09-29T00:23:45;15.80;78.40
73137;DHT22;62977;45.636;11.750;2022-09-29T00:28:40;16.00;78.40
73137;DHT22;62977;45.636;11.750;2022-09-29T00:31:08;16.00;78.30
73137;DHT22;62977;45.636;11.750;2022-09-29T00:33:38;16.00;78.40
73137;DHT22;62977;45.636;11.750;2022-09-29T00:36:06;16.00;78.10
73137;DHT22;62977;45.636;11.750;2022-09-29T00:38:32;16.00;78.10
73137;DHT22;62977;45.636;11.750;2022-09-29T00:40:59;16.00;78.10
73137;DHT22;62977;45.636;11.750;2022-09-29T00:46:13;16.00;78.00
73137;DHT22;62977;45.636;11.750;2022-09-29T00:48:40;16.00;77.80
73137;DHT22;62977;45.636;11.750;2022-09-29T00:51:07;16.00;77.60
73137;DHT22;62977;45.636;11.750;2022-09-29T00:53:33;16.10;77.50
73137;DHT22;62977;45.636;11.750;2022-09-29T00:56:02;16.00;77.50
73137;DHT22;62977;45.636;11.750;2022-09-29T00:58:39;16.10;77.50
73137;DHT22;62977;45.636;11.750;2022-09-29T01:01:07;16.20;77.30
73137;DHT22;62977;45.636;11.750;2022-09-29T01:03:37;16.20;77.30
73137;DHT22;62977;45.636;11.750;2022-09-29T01:06:20;16.30;77.30
73137;DHT22;62977;45.636;11.750;2022-09-29T01:09:01;16.10;77.30
73137;DHT22;62977;45.636;11.750;2022-09-29T01:11:29;16.10;77.50
73137;DHT22;62977;45.636;11.750;2022-09-29T01:13:56;16.00;77.60
73137;DHT22;62977;45.636;11.750;2022-09-29T01:16:31;15.90;77.60
73137;DHT22;62977;45.636;11.750;2022-09-29T01:18:58;16.00;77.70
73137;DHT22;62977;45.636;11.750;2022-09-29T01:43:19;15.60;78.60
73137;DHT22;62977;45.636;11.750;2022-09-29T01:45:52;15.60;78.60
73137;DHT22;62977;45.636;11.750;2022-09-29T01:48:28;15.60;78.40
73137;DHT22;62977;45.636;11.750;2022-09-29T01:50:59;15.50;78.30
73137;DHT22;62977;45.636;11.750;2022-09-29T01:53:37;15.60;78.50
73137;DHT22;62977;45.636;11.750;2022-09-29T01:56:12;15.60;78.50
73137;DHT22;62977;45.636;11.750;2022-09-29T01:58:48;15.50;78.70
73137;DHT22;62977;45.636;11.750;2022-09-29T02:01:17;15.50;78.50
73137;DHT22;62977;45.636;11.750;2022-09-29T02:06:21;15.50;78.40
73137;DHT22;62977;45.636;11.750;2022-09-29T02:08:53;15.60;78.50
73137;DHT22;62977;45.636;11.750;2022-09-29T02:11:19;15.50;78.60
73137;DHT22;62977;45.636;11.750;2022-09-29T02:16:28;15.40;78.80
73137;DHT22;62977;45.636;11.750;2022-09-29T02:19:00;15.50;78.60
73137;DHT22;62977;45.636;11.750;2022-09-29T02:21:27;15.30;80.10
73137;DHT22;62977;45.636;11.750;2022-09-29T02:23:53;15.30;80.30
73137;DHT22;62977;45.636;11.750;2022-09-29T02:26:19;15.20;80.50
73137;DHT22;62977;45.636;11.750;2022-09-29T02:28:46;15.20;80.50
73137;DHT22;62977;45.636;11.750;2022-09-29T02:31:13;15.20;80.50
73137;DHT22;62977;45.636;11.750;2022-09-29T02:33:39;15.00;80.60
73137;DHT22;62977;45.636;11.750;2022-09-29T02:38:58;15.10;80.80
73137;DHT22;62977;45.636;11.750;2022-09-29T02:51:54;14.80;81.40
73137;DHT22;62977;45.636;11.750;2022-09-29T02:59:25;14.60;82.00
73137;DHT22;62977;45.636;11.750;2022-09-29T03:01:54;14.50;82.20
73137;DHT22;62977;45.636;11.750;2022-09-29T03:04:23;14.60;81.80
73137;DHT22;62977;45.636;11.750;2022-09-29T03:06:50;14.70;81.80
73137;DHT22;62977;45.636;11.750;2022-09-29T03:09:16;14.80;81.50
73137;DHT22;62977;45.636;11.750;2022-09-29T03:11:41;14.70;81.60
73137;DHT22;62977;45.636;11.750;2022-09-29T03:14:07;14.90;81.70
73137;DHT22;62977;45.636;11.750;2022-09-29T03:16:34;14.80;81.60
73137;DHT22;62977;45.636;11.750;2022-09-29T03:19:00;14.70;81.80
73137;DHT22;62977;45.636;11.750;2022-09-29T03:21:26;14.70;81.90
73137;DHT22;62977;45.636;11.750;2022-09-29T03:23:52;14.70;81.90
73137;DHT22;62977;45.636;11.750;2022-09-29T03:26:17;14.60;81.90
73137;DHT22;62977;45.636;11.750;2022-09-29T03:28:44;14.60;82.10
73137;DHT22;62977;45.636;11.750;2022-09-29T03:31:10;14.50;82.30
73137;DHT22;62977;45.636;11.750;2022-09-29T03:33:37;14.50;82.20
73137;DHT22;62977;45.636;11.750;2022-09-29T03:36:06;14.60;82.20
73137;DHT22;62977;45.636;11.750;2022-09-29T03:38:33;14.50;82.20
73137;DHT22;62977;45.636;11.750;2022-09-29T03:40:59;14.40;82.60
73137;DHT22;62977;45.636;11.750;2022-09-29T03:43:25;14.50;82.70
73137;DHT22;62977;45.636;11.750;2022-09-29T03:45:52;14.50;82.60
73137;DHT22;62977;45.636;11.750;2022-09-29T03:48:19;14.60;82.40
73137;DHT22;62977;45.636;11.750;2022-09-29T03:50:46;14.60;82.20
73137;DHT22;62977;45.636;11.750;2022-09-29T03:53:12;14.60;82.10
73137;DHT22;62977;45.636;11.750;2022-09-29T03:55:39;14.70;82.00
73137;DHT22;62977;45.636;11.750;2022-09-29T03:58:05;14.70;81.90
73137;DHT22;62977;45.636;11.750;2022-09-29T04:00:31;14.80;81.70
73137;DHT22;62977;45.636;11.750;2022-09-29T04:02:57;14.90;81.60
73137;DHT22;62977;45.636;11.750;2022-09-29T04:05:23;15.00;81.40
73137;DHT22;62977;45.636;11.750;2022-09-29T04:07:49;14.90;81.50
73137;DHT22;62977;45.636;11.750;2022-09-29T04:10:15;15.00;81.30
73137;DHT22;62977;45.636;11.750;2022-09-29T04:12:40;15.00;81.30
73137;DHT22;62977;45.636;11.750;2022-09-29T04:15:06;15.00;81.60
73137;DHT22;62977;45.636;11.750;2022-09-29T04:17:33;15.00;81.40
73137;DHT22;62977;45.636;11.750;2022-09-29T04:19:58;14.90;81.30
73137;DHT22;62977;45.636;11.750;2022-09-29T04:22:24;14.80;81.40
73137;DHT22;62977;45.636;11.750;2022-09-29T04:24:50;14.90;81.40
73137;DHT22;62977;45.636;11.750;2022-09-29T04:27:17;14.90;81.40
73137;DHT22;62977;45.636;11.750;2022-09-29T04:29:43;14.90;81.40
73137;DHT22;62977;45.636;11.750;2022-09-29T04:32:09;14.90;81.40
73137;DHT22;62977;45.636;11.750;2022-09-29T04:34:35;15.00;81.20
73137;DHT22;62977;45.636;11.750;2022-09-29T04:37:00;14.90;81.10
73137;DHT22;62977;45.636;11.750;2022-09-29T04:39:27;14.90;81.00
73137;DHT22;62977;45.636;11.750;2022-09-29T04:41:52;15.00;81.20
73137;DHT22;62977;45.636;11.750;2022-09-29T04:44:18;14.80;81.50
73137;DHT22;62977;45.636;11.750;2022-09-29T04:46:52;14.90;81.40
73137;DHT22;62977;45.636;11.750;2022-09-29T04:49:18;14.80;81.60
73137;DHT22;62977;45.636;11.750;2022-09-29T04:51:44;14.80;81.60
73137;DHT22;62977;45.636;11.750;2022-09-29T04:54:10;14.90;81.50
73137;DHT22;62977;45.636;11.750;2022-09-29T04:56:35;14.90;81.40
73137;DHT22;62977;45.636;11.750;2022-09-29T04:59:01;14.90;81.40
73137;DHT22;62977;45.636;11.750;2022-09-29T05:01:27;14.80;81.50
73137;DHT22;62977;45.636;11.750;2022-09-29T05:03:53;14.60;81.70
73137;DHT22;62977;45.636;11.750;2022-09-29T05:06:19;14.60;81.60
73137;DHT22;62977;45.636;11.750;2022-09-29T05:08:44;14.60;81.80
73137;DHT22;62977;45.636;11.750;2022-09-29T05:11:10;14.70;81.60
73137;DHT22;62977;45.636;11.750;2022-09-29T05:13:36;14.70;81.60
73137;DHT22;62977;45.636;11.750;2022-09-29T05:16:03;14.60;81.90
73137;DHT22;62977;45.636;11.750;2022-09-29T05:18:29;14.60;81.80
73137;DHT22;62977;45.636;11.750;2022-09-29T05:20:55;14.50;81.90
73137;DHT22;62977;45.636;11.750;2022-09-29T05:23:21;14.60;81.80
73137;DHT22;62977;45.636;11.750;2022-09-29T05:25:47;14.60;81.80
73137;DHT22;62977;45.636;11.750;2022-09-29T05:28:14;14.60;81.60
73137;DHT22;62977;45.636;11.750;2022-09-29T05:30:40;14.70;81.70
73137;DHT22;62977;45.636;11.750;2022-09-29T05:33:06;14.70;81.60
73137;DHT22;62977;45.636;11.750;2022-09-29T05:35:32;14.80;81.20
73137;DHT22;62977;45.636;11.750;2022-09-29T05:37:58;14.90;81.10
73137;DHT22;62977;45.636;11.750;2022-09-29T05:40:23;14.90;81.00
73137;DHT22;62977;45.636;11.750;2022-09-29T05:42:50;14.90;81.30
73137;DHT22;62977;45.636;11.750;2022-09-29T05:45:16;15.00;81.10
73137;DHT22;62977;45.636;11.750;2022-09-29T05:47:43;15.00;81.30
73137;DHT22;62977;45.636;11.750;2022-09-29T05:50:12;15.00;81.10
73137;DHT22;62977;45.636;11.750;2022-09-29T05:52:39;15.10;81.10
73137;DHT22;62977;45.636;11.750;2022-09-29T05:55:05;15.10;80.60
73137;DHT22;62977;45.636;11.750;2022-09-29T05:57:34;15.10;80.80
73137;DHT22;62977;45.636;11.750;2022-09-29T06:00:01;15.30;80.90
73137;DHT22;62977;45.636;11.750;2022-09-29T06:02:26;15.50;79.80
73137;DHT22;62977;45.636;11.750;2022-09-29T06:04:52;15.50;79.40
73137;DHT22;62977;45.636;11.750;2022-09-29T06:07:18;15.60;79.40
73137;DHT22;62977;45.636;11.750;2022-09-29T06:09:43;15.70;79.30
73137;DHT22;62977;45.636;11.750;2022-09-29T06:12:10;15.80;79.30
73137;DHT22;62977;45.636;11.750;2022-09-29T06:14:35;15.80;79.40
73137;DHT22;62977;45.636;11.750;2022-09-29T06:17:01;15.90;79.10
73137;DHT22;62977;45.636;11.750;2022-09-29T06:19:27;15.80;79.00
73137;DHT22;62977;45.636;11.750;2022-09-29T06:21:52;16.00;78.90
73137;DHT22;62977;45.636;11.750;2022-09-29T06:24:18;15.90;78.70
73137;DHT22;62977;45.636;11.750;2022-09-29T06:26:44;16.00;78.80
73137;DHT22;62977;45.636;11.750;2022-09-29T06:29:09;16.20;78.30
73137;DHT22;62977;45.636;11.750;2022-09-29T06:31:35;16.40;78.20
73137;DHT22;62977;45.636;11.750;2022-09-29T06:34:04;16.50;77.70
73137;DHT22;62977;45.636;11.750;2022-09-29T06:36:39;16.80;77.50
73137;DHT22;62977;45.636;11.750;2022-09-29T06:39:24;16.90;77.70
73137;DHT22;62977;45.636;11.750;2022-09-29T06:41:50;16.90;77.10
73137;DHT22;62977;45.636;11.750;2022-09-29T06:44:21;17.00;77.00
73137;DHT22;62977;45.636;11.750;2022-09-29T06:46:49;17.00;77.50
73137;DHT22;62977;45.636;11.750;2022-09-29T06:49:16;17.10;77.40
73137;DHT22;62977;45.636;11.750;2022-09-29T06:51:42;17.20;77.00
73137;DHT22;62977;45.636;11.750;2022-09-29T06:54:12;17.10;76.40
73137;DHT22;62977;45.636;11.750;2022-09-29T06:56:38;17.00;77.20
73137;DHT22;62977;45.636;11.750;2022-09-29T06:59:05;17.10;78.10
73137;DHT22;62977;45.636;11.750;2022-09-29T07:01:30;17.10;78.30
73137;DHT22;62977;45.636;11.750;2022-09-29T07:03:56;17.10;78.40
73137;DHT22;62977;45.636;11.750;2022-09-29T07:06:25;17.00;78.70
73137;DHT22;62977;45.636;11.750;2022-09-29T07:08:55;16.90;78.90
73137;DHT22;62977;45.636;11.750;2022-09-29T07:11:21;16.70;79.30
73137;DHT22;62977;45.636;11.750;2022-09-29T07:13:49;16.80;79.60
73137;DHT22;62977;45.636;11.750;2022-09-29T07:16:15;16.80;79.50
73137;DHT22;62977;45.636;11.750;2022-09-29T07:18:41;16.60;79.10
73137;DHT22;62977;45.636;11.750;2022-09-29T07:21:10;16.40;80.10
73137;DHT22;62977;45.636;11.750;2022-09-29T07:23:37;16.40;80.50
73137;DHT22;62977;45.636;11.750;2022-09-29T07:26:04;16.30;80.80
73137;DHT22;62977;45.636;11.750;2022-09-29T07:28:30;16.30;80.80
73137;DHT22;62977;45.636;11.750;2022-09-29T07:31:07;16.40;81.10
73137;DHT22;62977;45.636;11.750;2022-09-29T07:33:33;16.50;81.50
73137;DHT22;62977;45.636;11.750;2022-09-29T07:35:59;16.60;81.70
73137;DHT22;62977;45.636;11.750;2022-09-29T07:38:29;16.50;81.80
73137;DHT22;62977;45.636;11.750;2022-09-29T07:41:06;16.60;81.70
73137;DHT22;62977;45.636;11.750;2022-09-29T07:43:33;16.70;81.80
73137;DHT22;62977;45.636;11.750;2022-09-29T07:45:59;16.50;81.60
73137;DHT22;62977;45.636;11.750;2022-09-29T07:48:25;16.60;81.70
73137;DHT22;62977;45.636;11.750;2022-09-29T07:50:51;16.50;81.70
73137;DHT22;62977;45.636;11.750;2022-09-29T07:53:17;16.50;81.70
73137;DHT22;62977;45.636;11.750;2022-09-29T07:55:43;16.70;82.10
73137;DHT22;62977;45.636;11.750;2022-09-29T07:58:09;16.60;81.70
73137;DHT22;62977;45.636;11.750;2022-09-29T08:00:35;16.60;82.70
73137;DHT22;62977;45.636;11.750;2022-09-29T08:03:05;16.50;82.40
73137;DHT22;62977;45.636;11.750;2022-09-29T08:05:34;16.60;82.00
73137;DHT22;62977;45.636;11.750;2022-09-29T08:08:04;16.70;82.80
73137;DHT22;62977;45.636;11.750;2022-09-29T08:10:31;17.00;82.10
73137;DHT22;62977;45.636;11.750;2022-09-29T08:12:57;17.10;82.30
73137;DHT22;62977;45.636;11.750;2022-09-29T08:15:23;17.10;82.70
73137;DHT22;62977;45.636;11.750;2022-09-29T08:17:53;17.20;82.40
73137;DHT22;62977;45.636;11.750;2022-09-29T08:20:20;17.10;82.50
73137;DHT22;62977;45.636;11.750;2022-09-29T08:22:46;17.30;82.20
73137;DHT22;62977;45.636;11.750;2022-09-29T08:25:16;17.40;81.70
73137;DHT22;62977;45.636;11.750;2022-09-29T08:27:42;17.30;81.30
73137;DHT22;62977;45.636;11.750;2022-09-29T08:30:09;17.40;81.10
73137;DHT22;62977;45.636;11.750;2022-09-29T08:32:35;17.20;81.30
73137;DHT22;62977;45.636;11.750;2022-09-29T08:35:02;17.10;81.70
73137;DHT22;62977;45.636;11.750;2022-09-29T08:37:28;17.10;81.80
73137;DHT22;62977;45.636;11.750;2022-09-29T08:39:53;17.20;81.70
73137;DHT22;62977;45.636;11.750;2022-09-29T08:44:59;17.10;81.90
73137;DHT22;62977;45.636;11.750;2022-09-29T08:47:38;17.00;81.90
73137;DHT22;62977;45.636;11.750;2022-09-29T08:52:43;16.90;82.40
73137;DHT22;62977;45.636;11.750;2022-09-29T08:57:57;16.80;82.40
73137;DHT22;62977;45.636;11.750;2022-09-29T09:00:33;16.60;82.90
73137;DHT22;62977;45.636;11.750;2022-09-29T09:14:27;17.80;81.80
73137;DHT22;62977;45.636;11.750;2022-09-29T09:19:32;17.90;80.40
73137;DHT22;62977;45.636;11.750;2022-09-29T09:22:19;17.60;81.30
73137;DHT22;62977;45.636;11.750;2022-09-29T09:25:00;17.10;82.90
73137;DHT22;62977;45.636;11.750;2022-09-29T09:27:41;17.10;83.00
73137;DHT22;62977;45.636;11.750;2022-09-29T09:30:15;16.90;82.90
73137;DHT22;62977;45.636;11.750;2022-09-29T09:33:12;17.20;83.40
73137;DHT22;62977;45.636;11.750;2022-09-29T09:35:49;17.40;82.90
73137;DHT22;62977;45.636;11.750;2022-09-29T09:38:21;17.30;83.00
73137;DHT22;62977;45.636;11.750;2022-09-29T09:40:52;17.50;82.60
73137;DHT22;62977;45.636;11.750;2022-09-29T09:43:33;17.60;82.80
73137;DHT22;62977;45.636;11.750;2022-09-29T09:51:33;17.70;83.10
73137;DHT22;62977;45.636;11.750;2022-09-29T09:54:12;17.80;82.20
73137;DHT22;62977;45.636;11.750;2022-09-29T10:01:46;17.90;81.80
73137;DHT22;62977;45.636;11.750;2022-09-29T10:04:12;18.20;80.80
73137;DHT22;62977;45.636;11.750;2022-09-29T10:06:38;18.10;82.30
73137;DHT22;62977;45.636;11.750;2022-09-29T10:09:04;18.30;80.90
73137;DHT22;62977;45.636;11.750;2022-09-29T10:11:31;18.50;80.70
73137;DHT22;62977;45.636;11.750;2022-09-29T10:14:10;18.70;80.10
73137;DHT22;62977;45.636;11.750;2022-09-29T10:16:50;18.90;80.00
73137;DHT22;62977;45.636;11.750;2022-09-29T10:19:22;18.90;79.40
73137;DHT22;62977;45.636;11.750;2022-09-29T10:21:50;19.30;79.10
73137;DHT22;62977;45.636;11.750;2022-09-29T10:24:27;19.20;78.40
73137;DHT22;62977;45.636;11.750;2022-09-29T10:26:56;19.40;79.10
73137;DHT22;62977;45.636;11.750;2022-09-29T10:29:40;19.60;79.00
73137;DHT22;62977;45.636;11.750;2022-09-29T10:32:16;19.30;78.30
73137;DHT22;62977;45.636;11.750;2022-09-29T10:34:50;19.40;78.00
73137;DHT22;62977;45.636;11.750;2022-09-29T10:37:31;19.60;76.30
73137;DHT22;62977;45.636;11.750;2022-09-29T10:40:16;19.50;75.90
73137;DHT22;62977;45.636;11.750;2022-09-29T10:42:44;19.80;76.40
73137;DHT22;62977;45.636;11.750;2022-09-29T10:47:48;20.20;75.90
73137;DHT22;62977;45.636;11.750;2022-09-29T10:52:56;21.10;73.00
73137;DHT22;62977;45.636;11.750;2022-09-29T10:57:50;21.90;71.50
73137;DHT22;62977;45.636;11.750;2022-09-29T11:00:46;22.30;70.90
73137;DHT22;62977;45.636;11.750;2022-09-29T11:03:24;22.30;70.20
73137;DHT22;62977;45.636;11.750;2022-09-29T11:06:12;22.20;69.40
73137;DHT22;62977;45.636;11.750;2022-09-29T11:11:37;22.30;70.20
73137;DHT22;62977;45.636;11.750;2022-09-29T11:14:04;22.40;69.70
73137;DHT22;62977;45.636;11.750;2022-09-29T11:16:35;22.80;70.10
73137;DHT22;62977;45.636;11.750;2022-09-29T11:19:10;23.30;70.00
73137;DHT22;62977;45.636;11.750;2022-09-29T11:27:09;24.00;66.10
73137;DHT22;62977;45.636;11.750;2022-09-29T11:35:38;23.70;58.90
73137;DHT22;62977;45.636;11.750;2022-09-29T11:40:53;23.60;59.40
73137;DHT22;62977;45.636;11.750;2022-09-29T11:46:03;23.60;62.10
73137;DHT22;62977;45.636;11.750;2022-09-29T11:49:04;23.80;59.10
73137;DHT22;62977;45.636;11.750;2022-09-29T12:00:12;24.90;57.90
73137;DHT22;62977;45.636;11.750;2022-09-29T12:14:06;26.90;51.20
73137;DHT22;62977;45.636;11.750;2022-09-29T12:16:38;27.20;50.40
73137;DHT22;62977;45.636;11.750;2022-09-29T12:19:10;27.10;49.60
73137;DHT22;62977;45.636;11.750;2022-09-29T12:21:41;26.10;51.70
73137;DHT22;62977;45.636;11.750;2022-09-29T12:24:15;26.70;50.70
73137;DHT22;62977;45.636;11.750;2022-09-29T12:26:46;26.00;50.70
73137;DHT22;62977;45.636;11.750;2022-09-29T12:29:42;26.40;49.90
73137;DHT22;62977;45.636;11.750;2022-09-29T12:34:49;26.90;48.60
73137;DHT22;62977;45.636;11.750;2022-09-29T12:37:41;27.40;48.00
73137;DHT22;62977;45.636;11.750;2022-09-29T12:51:32;26.60;47.00
73137;DHT22;62977;45.636;11.750;2022-09-29T12:57:03;25.70;51.20
73137;DHT22;62977;45.636;11.750;2022-09-29T13:15:53;26.90;47.30
73137;DHT22;62977;45.636;11.750;2022-09-29T13:28:55;27.20;46.50
73137;DHT22;62977;45.636;11.750;2022-09-29T13:31:25;26.30;50.30
73137;DHT22;62977;45.636;11.750;2022-09-29T13:33:54;25.70;51.10
73137;DHT22;62977;45.636;11.750;2022-09-29T13:36:26;25.10;53.10
73137;DHT22;62977;45.636;11.750;2022-09-29T13:38:55;24.80;54.10
73137;DHT22;62977;45.636;11.750;2022-09-29T13:54:39;24.70;54.30
73137;DHT22;62977;45.636;11.750;2022-09-29T14:04:55;24.40;55.00
73137;DHT22;62977;45.636;11.750;2022-09-29T14:07:46;24.30;55.40
73137;DHT22;62977;45.636;11.750;2022-09-29T14:13:11;24.10;55.60
73137;DHT22;62977;45.636;11.750;2022-09-29T14:18:48;23.70;55.50
73137;DHT22;62977;45.636;11.750;2022-09-29T14:37:41;23.70;55.90
73137;DHT22;62977;45.636;11.750;2022-09-29T14:40:07;23.70;56.40
73137;DHT22;62977;45.636;11.750;2022-09-29T14:43:07;23.70;55.70
73137;DHT22;62977;45.636;11.750;2022-09-29T14:48:44;23.30;59.90
73137;DHT22;62977;45.636;11.750;2022-09-29T14:51:36;22.80;60.30
73137;DHT22;62977;45.636;11.750;2022-09-29T14:54:41;22.60;62.10
73137;DHT22;62977;45.636;11.750;2022-09-29T15:02:52;22.20;64.80
73137;DHT22;62977;45.636;11.750;2022-09-29T15:07:48;22.00;71.40
73137;DHT22;62977;45.636;11.750;2022-09-29T15:10:31;21.40;70.50
73137;DHT22;62977;45.636;11.750;2022-09-29T15:13:24;21.20;72.60
73137;DHT22;62977;45.636;11.750;2022-09-29T15:16:19;21.20;71.40
73137;DHT22;62977;45.636;11.750;2022-09-29T15:27:02;20.70;74.80
73137;DHT22;62977;45.636;11.750;2022-09-29T15:29:28;20.60;75.60
73137;DHT22;62977;45.636;11.750;2022-09-29T15:31:54;20.50;76.20
73137;DHT22;62977;45.636;11.750;2022-09-29T15:34:23;20.30;76.30
73137;DHT22;62977;45.636;11.750;2022-09-29T15:36:51;19.90;76.00
73137;DHT22;62977;45.636;11.750;2022-09-29T15:42:10;20.20;75.60
73137;DHT22;62977;45.636;11.750;2022-09-29T15:44:38;20.20;75.50
73137;DHT22;62977;45.636;11.750;2022-09-29T15:47:03;20.20;75.40
73137;DHT22;62977;45.636;11.750;2022-09-29T15:49:29;19.90;76.90
73137;DHT22;62977;45.636;11.750;2022-09-29T15:54:29;19.30;80.20
73137;DHT22;62977;45.636;11.750;2022-09-29T15:56:58;19.40;79.40
73137;DHT22;62977;45.636;11.750;2022-09-29T15:59:46;19.40;79.00
73137;DHT22;62977;45.636;11.750;2022-09-29T16:02:40;19.30;79.20
73137;DHT22;62977;45.636;11.750;2022-09-29T16:05:13;19.10;79.10
73137;DHT22;62977;45.636;11.750;2022-09-29T16:11:13;19.10;79.20
73137;DHT22;62977;45.636;11.750;2022-09-29T16:13:29;18.90;80.00
73137;DHT22;62977;45.636;11.750;2022-09-29T16:16:00;19.10;79.90
73137;DHT22;62977;45.636;11.750;2022-09-29T16:18:42;19.00;79.20
73137;DHT22;62977;45.636;11.750;2022-09-29T16:21:12;19.10;78.80
73137;DHT22;62977;45.636;11.750;2022-09-29T16:26:50;18.90;78.70
73137;DHT22;62977;45.636;11.750;2022-09-29T16:29:24;18.80;78.40
73137;DHT22;62977;45.636;11.750;2022-09-29T16:31:51;18.80;78.80
73137;DHT22;62977;45.636;11.750;2022-09-29T16:37:05;18.80;78.90
73137;DHT22;62977;45.636;11.750;2022-09-29T16:39:47;18.90;78.90
73137;DHT22;62977;45.636;11.750;2022-09-29T16:42:22;18.90;79.40
73137;DHT22;62977;45.636;11.750;2022-09-29T16:44:50;18.80;78.60
73137;DHT22;62977;45.636;11.750;2022-09-29T16:47:24;18.80;78.70
73137;DHT22;62977;45.636;11.750;2022-09-29T16:49:59;18.80;79.20
73137;DHT22;62977;45.636;11.750;2022-09-29T16:52:49;18.70;78.60
73137;DHT22;62977;45.636;11.750;2022-09-29T16:57:57;18.50;79.10
73137;DHT22;62977;45.636;11.750;2022-09-29T17:00:23;18.50;79.10
73137;DHT22;62977;45.636;11.750;2022-09-29T17:02:53;18.60;78.90
73137;DHT22;62977;45.636;11.750;2022-09-29T17:05:20;18.60;79.00
73137;DHT22;62977;45.636;11.750;2022-09-29T17:07:47;18.60;79.50
73137;DHT22;62977;45.636;11.750;2022-09-29T17:10:19;18.60;79.20
73137;DHT22;62977;45.636;11.750;2022-09-29T17:12:45;18.30;79.00
73137;DHT22;62977;45.636;11.750;2022-09-29T17:15:13;18.30;79.30
73137;DHT22;62977;45.636;11.750;2022-09-29T17:17:38;18.20;80.30
73137;DHT22;62977;45.636;11.750;2022-09-29T17:20:16;18.00;81.70
73137;DHT22;62977;45.636;11.750;2022-09-29T17:22:43;18.10;81.80
73137;DHT22;62977;45.636;11.750;2022-09-29T17:25:12;18.20;80.30
73137;DHT22;62977;45.636;11.750;2022-09-29T17:27:38;18.40;78.20
73137;DHT22;62977;45.636;11.750;2022-09-29T17:30:27;18.20;78.40
73137;DHT22;62977;45.636;11.750;2022-09-29T17:32:54;18.40;77.80
73137;DHT22;62977;45.636;11.750;2022-09-29T17:35:24;18.40;75.70
73137;DHT22;62977;45.636;11.750;2022-09-29T17:37:51;18.70;75.30
73137;DHT22;62977;45.636;11.750;2022-09-29T17:40:21;18.80;75.60
73137;DHT22;62977;45.636;11.750;2022-09-29T17:42:48;18.80;75.30
73137;DHT22;62977;45.636;11.750;2022-09-29T17:45:17;18.70;75.50
73137;DHT22;62977;45.636;11.750;2022-09-29T17:47:44;18.70;76.60
73137;DHT22;62977;45.636;11.750;2022-09-29T17:52:42;18.40;77.40
73137;DHT22;62977;45.636;11.750;2022-09-29T17:55:08;18.30;77.50
73137;DHT22;62977;45.636;11.750;2022-09-29T17:57:37;18.40;77.50
73137;DHT22;62977;45.636;11.750;2022-09-29T18:00:10;18.30;77.80
73137;DHT22;62977;45.636;11.750;2022-09-29T18:02:38;18.10;78.60
73137;DHT22;62977;45.636;11.750;2022-09-29T18:05:04;18.20;77.60
73137;DHT22;62977;45.636;11.750;2022-09-29T18:07:31;18.10;78.70
73137;DHT22;62977;45.636;11.750;2022-09-29T18:09:56;18.00;79.10
73137;DHT22;62977;45.636;11.750;2022-09-29T18:12:23;18.00;78.90
73137;DHT22;62977;45.636;11.750;2022-09-29T18:14:48;17.80;79.50
73137;DHT22;62977;45.636;11.750;2022-09-29T18:17:14;17.80;79.00
73137;DHT22;62977;45.636;11.750;2022-09-29T18:19:40;17.80;79.00
73137;DHT22;62977;45.636;11.750;2022-09-29T18:22:06;17.70;78.80
73137;DHT22;62977;45.636;11.750;2022-09-29T18:24:33;17.90;78.80
73137;DHT22;62977;45.636;11.750;2022-09-29T18:26:59;17.70;79.00
73137;DHT22;62977;45.636;11.750;2022-09-29T18:29:24;17.70;78.10
73137;DHT22;62977;45.636;11.750;2022-09-29T18:31:50;17.70;78.80
73137;DHT22;62977;45.636;11.750;2022-09-29T18:34:18;17.60;79.10
73137;DHT22;62977;45.636;11.750;2022-09-29T18:36:44;17.50;79.10
73137;DHT22;62977;45.636;11.750;2022-09-29T18:39:11;17.60;78.80
73137;DHT22;62977;45.636;11.750;2022-09-29T18:41:37;17.60;78.60
73137;DHT22;62977;45.636;11.750;2022-09-29T18:44:13;17.70;78.20
73137;DHT22;62977;45.636;11.750;2022-09-29T18:46:40;17.60;78.40
73137;DHT22;62977;45.636;11.750;2022-09-29T18:49:12;17.70;78.50
73137;DHT22;62977;45.636;11.750;2022-09-29T18:51:38;17.60;78.50
73137;DHT22;62977;45.636;11.750;2022-09-29T18:54:04;17.60;78.50
73137;DHT22;62977;45.636;11.750;2022-09-29T18:56:31;17.50;78.70
73137;DHT22;62977;45.636;11.750;2022-09-29T18:58:57;17.50;78.60
73137;DHT22;62977;45.636;11.750;2022-09-29T19:01:24;17.50;78.70
73137;DHT22;62977;45.636;11.750;2022-09-29T19:03:52;17.60;79.00
73137;DHT22;62977;45.636;11.750;2022-09-29T19:06:18;17.60;79.20
73137;DHT22;62977;45.636;11.750;2022-09-29T19:08:44;17.50;79.40
73137;DHT22;62977;45.636;11.750;2022-09-29T19:11:19;17.50;79.80
73137;DHT22;62977;45.636;11.750;2022-09-29T19:13:45;17.30;79.20
73137;DHT22;62977;45.636;11.750;2022-09-29T19:16:11;17.40;79.20
73137;DHT22;62977;45.636;11.750;2022-09-29T19:18:37;17.40;79.80
73137;DHT22;62977;45.636;11.750;2022-09-29T19:21:09;17.40;79.50
73137;DHT22;62977;45.636;11.750;2022-09-29T19:23:36;17.20;79.40
73137;DHT22;62977;45.636;11.750;2022-09-29T19:26:12;17.20;79.40
73137;DHT22;62977;45.636;11.750;2022-09-29T19:28:39;17.20;79.20
73137;DHT22;62977;45.636;11.750;2022-09-29T19:31:10;17.20;79.60
73137;DHT22;62977;45.636;11.750;2022-09-29T19:33:38;17.10;80.00
73137;DHT22;62977;45.636;11.750;2022-09-29T19:36:06;17.10;79.50
73137;DHT22;62977;45.636;11.750;2022-09-29T19:38:34;17.10;80.20
73137;DHT22;62977;45.636;11.750;2022-09-29T19:41:00;16.80;79.60
73137;DHT22;62977;45.636;11.750;2022-09-29T19:43:26;16.90;79.70
73137;DHT22;62977;45.636;11.750;2022-09-29T19:45:52;16.80;80.70
73137;DHT22;62977;45.636;11.750;2022-09-29T19:48:22;16.70;80.40